X  Schließen METAR Luftfahrt Wetterdaten     LOWW Vienna International Airport
Temperatur
13°C Temperatur
11°C Taupunkt
88% Feuchtigkeit



Wind
5 km/h
3 MPS
1 M/S
3 KTS



330°
NNW
Aktuelle Wetterlage

Teilweise bewölkt Teilweise bewölkt
Luftdruck 1013.92 (hPa) - 29.94 (inHg)
Sichtweite 6.2 (Meile) - 10 (Km)
Flughafen
Flughafen Code LOWW

Position : Vienna International Airport
Entfernung: 58 (Km)

Metar:
LOWW 010650Z 33003KT 9999 FEW014 BKN050 13/11 Q1014 NOSIG

Zeit: 01-10-2022 08:50 CEST